sensor_id;sensor_type;location;lat;lon;timestamp;P1;durP1;ratioP1;P2;durP2;ratioP2
27127;SDS011;14660;49.008;8.390;2022-08-30T00:00:34;3.35;;;2.53;;
27127;SDS011;14660;49.008;8.390;2022-08-30T00:03:19;4.05;;;2.40;;
27127;SDS011;14660;49.008;8.390;2022-08-30T00:05:47;6.00;;;2.80;;
27127;SDS011;14660;49.008;8.390;2022-08-30T00:08:14;3.95;;;2.38;;
27127;SDS011;14660;49.008;8.390;2022-08-30T00:10:41;3.85;;;2.53;;
27127;SDS011;14660;49.008;8.390;2022-08-30T00:13:09;4.22;;;2.35;;
27127;SDS011;14660;49.008;8.390;2022-08-30T00:15:38;3.47;;;2.58;;
27127;SDS011;14660;49.008;8.390;2022-08-30T00:18:06;4.35;;;2.75;;
27127;SDS011;14660;49.008;8.390;2022-08-30T00:20:35;3.72;;;2.75;;
27127;SDS011;14660;49.008;8.390;2022-08-30T00:23:03;3.85;;;2.60;;
27127;SDS011;14660;49.008;8.390;2022-08-30T00:25:30;2.85;;;2.35;;
27127;SDS011;14660;49.008;8.390;2022-08-30T00:27:57;4.93;;;2.95;;
27127;SDS011;14660;49.008;8.390;2022-08-30T00:30:24;4.43;;;2.92;;
27127;SDS011;14660;49.008;8.390;2022-08-30T00:32:51;5.38;;;3.10;;
27127;SDS011;14660;49.008;8.390;2022-08-30T00:35:19;5.72;;;3.15;;
27127;SDS011;14660;49.008;8.390;2022-08-30T00:37:46;3.90;;;3.10;;
27127;SDS011;14660;49.008;8.390;2022-08-30T00:40:14;5.05;;;2.97;;
27127;SDS011;14660;49.008;8.390;2022-08-30T00:42:41;4.07;;;2.20;;
27127;SDS011;14660;49.008;8.390;2022-08-30T00:45:21;5.00;;;2.25;;
27127;SDS011;14660;49.008;8.390;2022-08-30T00:47:59;5.72;;;3.00;;
27127;SDS011;14660;49.008;8.390;2022-08-30T00:50:28;3.45;;;2.38;;
27127;SDS011;14660;49.008;8.390;2022-08-30T00:53:05;5.78;;;2.42;;
27127;SDS011;14660;49.008;8.390;2022-08-30T00:55:34;6.18;;;2.72;;
27127;SDS011;14660;49.008;8.390;2022-08-30T00:58:02;3.22;;;2.60;;
27127;SDS011;14660;49.008;8.390;2022-08-30T01:00:31;3.33;;;2.58;;
27127;SDS011;14660;49.008;8.390;2022-08-30T01:02:59;3.22;;;2.38;;
27127;SDS011;14660;49.008;8.390;2022-08-30T01:05:26;9.75;;;2.42;;
27127;SDS011;14660;49.008;8.390;2022-08-30T01:07:53;7.07;;;3.42;;
27127;SDS011;14660;49.008;8.390;2022-08-30T01:10:20;5.55;;;3.10;;
27127;SDS011;14660;49.008;8.390;2022-08-30T01:12:48;7.05;;;2.55;;
27127;SDS011;14660;49.008;8.390;2022-08-30T01:15:15;4.55;;;2.22;;
27127;SDS011;14660;49.008;8.390;2022-08-30T01:17:42;3.15;;;2.78;;
27127;SDS011;14660;49.008;8.390;2022-08-30T01:20:11;5.13;;;2.80;;
27127;SDS011;14660;49.008;8.390;2022-08-30T01:25:47;5.50;;;2.25;;
27127;SDS011;14660;49.008;8.390;2022-08-30T01:28:25;4.22;;;2.28;;
27127;SDS011;14660;49.008;8.390;2022-08-30T01:30:53;3.15;;;2.20;;
27127;SDS011;14660;49.008;8.390;2022-08-30T01:33:20;4.82;;;2.35;;
27127;SDS011;14660;49.008;8.390;2022-08-30T01:38:37;4.68;;;2.83;;
27127;SDS011;14660;49.008;8.390;2022-08-30T01:44:00;5.10;;;2.33;;
27127;SDS011;14660;49.008;8.390;2022-08-30T01:46:33;6.07;;;2.50;;
27127;SDS011;14660;49.008;8.390;2022-08-30T01:49:05;2.88;;;2.05;;
27127;SDS011;14660;49.008;8.390;2022-08-30T01:51:34;5.57;;;2.13;;
27127;SDS011;14660;49.008;8.390;2022-08-30T01:54:02;3.42;;;2.42;;
27127;SDS011;14660;49.008;8.390;2022-08-30T01:56:29;2.70;;;2.00;;
27127;SDS011;14660;49.008;8.390;2022-08-30T01:58:56;5.50;;;2.60;;
27127;SDS011;14660;49.008;8.390;2022-08-30T02:01:24;3.13;;;1.83;;
27127;SDS011;14660;49.008;8.390;2022-08-30T02:03:54;4.55;;;2.20;;
27127;SDS011;14660;49.008;8.390;2022-08-30T02:06:22;2.40;;;2.05;;
27127;SDS011;14660;49.008;8.390;2022-08-30T02:08:49;5.78;;;2.35;;
27127;SDS011;14660;49.008;8.390;2022-08-30T02:11:16;3.42;;;2.33;;
27127;SDS011;14660;49.008;8.390;2022-08-30T02:13:43;3.70;;;2.10;;
27127;SDS011;14660;49.008;8.390;2022-08-30T02:16:12;6.40;;;2.38;;
27127;SDS011;14660;49.008;8.390;2022-08-30T02:18:41;3.88;;;1.92;;
27127;SDS011;14660;49.008;8.390;2022-08-30T02:21:09;5.68;;;2.22;;
27127;SDS011;14660;49.008;8.390;2022-08-30T02:23:37;5.13;;;1.98;;
27127;SDS011;14660;49.008;8.390;2022-08-30T02:26:04;4.03;;;2.88;;
27127;SDS011;14660;49.008;8.390;2022-08-30T02:28:31;7.15;;;3.28;;
27127;SDS011;14660;49.008;8.390;2022-08-30T02:30:59;3.92;;;2.17;;
27127;SDS011;14660;49.008;8.390;2022-08-30T02:33:25;3.50;;;2.03;;
27127;SDS011;14660;49.008;8.390;2022-08-30T02:35:51;6.75;;;2.80;;
27127;SDS011;14660;49.008;8.390;2022-08-30T02:38:18;6.47;;;2.45;;
27127;SDS011;14660;49.008;8.390;2022-08-30T02:40:46;4.40;;;2.30;;
27127;SDS011;14660;49.008;8.390;2022-08-30T02:43:12;4.07;;;2.42;;
27127;SDS011;14660;49.008;8.390;2022-08-30T02:45:39;3.00;;;2.08;;
27127;SDS011;14660;49.008;8.390;2022-08-30T02:48:07;6.15;;;2.20;;
27127;SDS011;14660;49.008;8.390;2022-08-30T02:50:38;6.00;;;2.45;;
27127;SDS011;14660;49.008;8.390;2022-08-30T02:53:09;4.32;;;2.47;;
27127;SDS011;14660;49.008;8.390;2022-08-30T02:55:36;3.20;;;2.30;;
27127;SDS011;14660;49.008;8.390;2022-08-30T02:58:03;4.18;;;2.45;;
27127;SDS011;14660;49.008;8.390;2022-08-30T03:00:31;4.15;;;2.05;;
27127;SDS011;14660;49.008;8.390;2022-08-30T03:02:58;4.80;;;2.15;;
27127;SDS011;14660;49.008;8.390;2022-08-30T03:05:25;5.47;;;1.88;;
27127;SDS011;14660;49.008;8.390;2022-08-30T03:07:52;4.45;;;2.28;;
27127;SDS011;14660;49.008;8.390;2022-08-30T03:10:19;3.90;;;2.10;;
27127;SDS011;14660;49.008;8.390;2022-08-30T03:12:46;6.47;;;2.60;;
27127;SDS011;14660;49.008;8.390;2022-08-30T03:15:13;5.25;;;2.47;;
27127;SDS011;14660;49.008;8.390;2022-08-30T03:17:41;5.03;;;2.20;;
27127;SDS011;14660;49.008;8.390;2022-08-30T03:20:09;5.88;;;3.08;;
27127;SDS011;14660;49.008;8.390;2022-08-30T03:22:37;4.07;;;2.33;;
27127;SDS011;14660;49.008;8.390;2022-08-30T03:25:05;4.40;;;2.22;;
27127;SDS011;14660;49.008;8.390;2022-08-30T03:27:32;4.18;;;2.13;;
27127;SDS011;14660;49.008;8.390;2022-08-30T03:29:59;4.57;;;2.08;;
27127;SDS011;14660;49.008;8.390;2022-08-30T03:32:25;4.90;;;2.67;;
27127;SDS011;14660;49.008;8.390;2022-08-30T03:34:53;6.88;;;2.88;;
27127;SDS011;14660;49.008;8.390;2022-08-30T03:37:22;4.00;;;2.30;;
27127;SDS011;14660;49.008;8.390;2022-08-30T03:39:50;6.95;;;2.60;;
27127;SDS011;14660;49.008;8.390;2022-08-30T03:42:16;3.90;;;2.22;;
27127;SDS011;14660;49.008;8.390;2022-08-30T03:44:43;4.80;;;2.30;;
27127;SDS011;14660;49.008;8.390;2022-08-30T03:47:11;3.75;;;2.60;;
27127;SDS011;14660;49.008;8.390;2022-08-30T03:49:37;6.38;;;2.55;;
27127;SDS011;14660;49.008;8.390;2022-08-30T03:52:04;6.97;;;2.38;;
27127;SDS011;14660;49.008;8.390;2022-08-30T03:54:31;4.25;;;2.58;;
27127;SDS011;14660;49.008;8.390;2022-08-30T03:56:57;5.28;;;2.42;;
27127;SDS011;14660;49.008;8.390;2022-08-30T03:59:25;5.45;;;2.78;;
27127;SDS011;14660;49.008;8.390;2022-08-30T04:01:52;6.88;;;3.42;;
27127;SDS011;14660;49.008;8.390;2022-08-30T04:04:18;6.55;;;2.30;;
27127;SDS011;14660;49.008;8.390;2022-08-30T04:06:45;4.82;;;2.45;;
27127;SDS011;14660;49.008;8.390;2022-08-30T04:09:12;3.90;;;2.10;;
27127;SDS011;14660;49.008;8.390;2022-08-30T04:11:39;4.50;;;2.75;;
27127;SDS011;14660;49.008;8.390;2022-08-30T04:14:06;6.20;;;2.55;;
27127;SDS011;14660;49.008;8.390;2022-08-30T04:16:32;5.55;;;2.10;;
27127;SDS011;14660;49.008;8.390;2022-08-30T04:18:59;4.18;;;2.22;;
27127;SDS011;14660;49.008;8.390;2022-08-30T04:21:27;3.72;;;2.10;;
27127;SDS011;14660;49.008;8.390;2022-08-30T04:23:54;3.13;;;2.20;;
27127;SDS011;14660;49.008;8.390;2022-08-30T04:26:21;4.95;;;2.63;;
27127;SDS011;14660;49.008;8.390;2022-08-30T04:28:47;6.75;;;2.72;;
27127;SDS011;14660;49.008;8.390;2022-08-30T04:31:15;7.78;;;3.08;;
27127;SDS011;14660;49.008;8.390;2022-08-30T04:33:42;5.40;;;2.33;;
27127;SDS011;14660;49.008;8.390;2022-08-30T04:36:10;5.78;;;2.80;;
27127;SDS011;14660;49.008;8.390;2022-08-30T04:38:39;4.95;;;2.97;;
27127;SDS011;14660;49.008;8.390;2022-08-30T04:41:13;4.35;;;2.45;;
27127;SDS011;14660;49.008;8.390;2022-08-30T04:43:46;4.50;;;2.75;;
27127;SDS011;14660;49.008;8.390;2022-08-30T04:46:15;5.03;;;2.20;;
27127;SDS011;14660;49.008;8.390;2022-08-30T04:48:44;4.97;;;2.20;;
27127;SDS011;14660;49.008;8.390;2022-08-30T04:51:12;5.25;;;2.65;;
27127;SDS011;14660;49.008;8.390;2022-08-30T04:53:40;6.07;;;3.42;;
27127;SDS011;14660;49.008;8.390;2022-08-30T04:56:10;3.47;;;2.33;;
27127;SDS011;14660;49.008;8.390;2022-08-30T04:58:44;7.63;;;2.95;;
27127;SDS011;14660;49.008;8.390;2022-08-30T05:01:16;6.20;;;2.60;;
27127;SDS011;14660;49.008;8.390;2022-08-30T05:03:53;3.17;;;2.10;;
27127;SDS011;14660;49.008;8.390;2022-08-30T05:06:23;4.20;;;2.60;;
27127;SDS011;14660;49.008;8.390;2022-08-30T05:08:50;6.07;;;3.13;;
27127;SDS011;14660;49.008;8.390;2022-08-30T05:11:19;5.47;;;2.92;;
27127;SDS011;14660;49.008;8.390;2022-08-30T05:13:47;3.55;;;1.83;;
27127;SDS011;14660;49.008;8.390;2022-08-30T05:16:15;5.30;;;2.13;;
27127;SDS011;14660;49.008;8.390;2022-08-30T05:18:44;5.15;;;2.50;;
27127;SDS011;14660;49.008;8.390;2022-08-30T05:21:14;3.97;;;2.33;;
27127;SDS011;14660;49.008;8.390;2022-08-30T05:23:43;3.67;;;2.47;;
27127;SDS011;14660;49.008;8.390;2022-08-30T05:26:12;6.22;;;2.75;;
27127;SDS011;14660;49.008;8.390;2022-08-30T05:28:42;6.32;;;2.92;;
27127;SDS011;14660;49.008;8.390;2022-08-30T05:31:13;4.15;;;2.50;;
27127;SDS011;14660;49.008;8.390;2022-08-30T05:33:45;4.00;;;2.53;;
27127;SDS011;14660;49.008;8.390;2022-08-30T05:36:13;6.72;;;2.28;;
27127;SDS011;14660;49.008;8.390;2022-08-30T05:38:41;7.65;;;2.72;;
27127;SDS011;14660;49.008;8.390;2022-08-30T05:41:09;3.50;;;2.35;;
27127;SDS011;14660;49.008;8.390;2022-08-30T05:43:36;5.80;;;2.50;;
27127;SDS011;14660;49.008;8.390;2022-08-30T05:46:05;4.13;;;2.75;;
27127;SDS011;14660;49.008;8.390;2022-08-30T05:48:36;3.90;;;1.85;;
27127;SDS011;14660;49.008;8.390;2022-08-30T05:53:50;4.88;;;2.65;;
27127;SDS011;14660;49.008;8.390;2022-08-30T05:56:19;5.32;;;2.10;;
27127;SDS011;14660;49.008;8.390;2022-08-30T05:58:48;4.05;;;2.40;;
27127;SDS011;14660;49.008;8.390;2022-08-30T06:01:19;4.15;;;2.40;;
27127;SDS011;14660;49.008;8.390;2022-08-30T06:03:49;7.13;;;2.95;;
27127;SDS011;14660;49.008;8.390;2022-08-30T06:06:16;8.40;;;3.28;;
27127;SDS011;14660;49.008;8.390;2022-08-30T06:08:42;4.95;;;2.47;;
27127;SDS011;14660;49.008;8.390;2022-08-30T06:11:15;7.18;;;3.03;;
27127;SDS011;14660;49.008;8.390;2022-08-30T06:13:45;6.75;;;2.42;;
27127;SDS011;14660;49.008;8.390;2022-08-30T06:16:13;4.07;;;2.53;;
27127;SDS011;14660;49.008;8.390;2022-08-30T06:18:45;8.67;;;3.07;;
27127;SDS011;14660;49.008;8.390;2022-08-30T06:21:18;5.15;;;2.67;;
27127;SDS011;14660;49.008;8.390;2022-08-30T06:23:47;6.18;;;2.58;;
27127;SDS011;14660;49.008;8.390;2022-08-30T06:26:14;5.65;;;2.38;;
27127;SDS011;14660;49.008;8.390;2022-08-30T06:28:41;5.70;;;3.60;;
27127;SDS011;14660;49.008;8.390;2022-08-30T06:31:09;4.00;;;2.47;;
27127;SDS011;14660;49.008;8.390;2022-08-30T06:33:36;4.78;;;3.00;;
27127;SDS011;14660;49.008;8.390;2022-08-30T06:36:07;6.07;;;2.40;;
27127;SDS011;14660;49.008;8.390;2022-08-30T06:38:36;6.15;;;2.70;;
27127;SDS011;14660;49.008;8.390;2022-08-30T06:41:05;5.22;;;2.95;;
27127;SDS011;14660;49.008;8.390;2022-08-30T06:43:34;5.10;;;2.65;;
27127;SDS011;14660;49.008;8.390;2022-08-30T06:46:05;6.85;;;2.70;;
27127;SDS011;14660;49.008;8.390;2022-08-30T06:48:33;4.38;;;2.85;;
27127;SDS011;14660;49.008;8.390;2022-08-30T06:51:00;3.95;;;3.00;;
27127;SDS011;14660;49.008;8.390;2022-08-30T06:53:27;5.38;;;3.00;;
27127;SDS011;14660;49.008;8.390;2022-08-30T06:55:56;6.78;;;3.05;;
27127;SDS011;14660;49.008;8.390;2022-08-30T06:58:25;7.88;;;3.20;;
27127;SDS011;14660;49.008;8.390;2022-08-30T07:00:53;4.82;;;3.20;;
27127;SDS011;14660;49.008;8.390;2022-08-30T07:03:20;7.78;;;3.22;;
27127;SDS011;14660;49.008;8.390;2022-08-30T07:05:47;7.47;;;4.00;;
27127;SDS011;14660;49.008;8.390;2022-08-30T07:08:15;7.00;;;2.90;;
27127;SDS011;14660;49.008;8.390;2022-08-30T07:10:43;4.32;;;2.65;;
27127;SDS011;14660;49.008;8.390;2022-08-30T07:13:10;7.30;;;3.42;;
27127;SDS011;14660;49.008;8.390;2022-08-30T07:15:39;5.88;;;3.47;;
27127;SDS011;14660;49.008;8.390;2022-08-30T07:18:08;7.00;;;4.07;;
27127;SDS011;14660;49.008;8.390;2022-08-30T07:20:54;5.25;;;3.22;;
27127;SDS011;14660;49.008;8.390;2022-08-30T07:23:22;4.55;;;3.08;;
27127;SDS011;14660;49.008;8.390;2022-08-30T07:25:49;9.32;;;3.25;;
27127;SDS011;14660;49.008;8.390;2022-08-30T07:28:16;5.78;;;3.63;;
27127;SDS011;14660;49.008;8.390;2022-08-30T07:30:43;5.28;;;3.28;;
27127;SDS011;14660;49.008;8.390;2022-08-30T07:33:10;6.72;;;3.22;;
27127;SDS011;14660;49.008;8.390;2022-08-30T07:35:37;6.05;;;3.08;;
27127;SDS011;14660;49.008;8.390;2022-08-30T07:38:03;3.58;;;2.55;;
27127;SDS011;14660;49.008;8.390;2022-08-30T07:40:30;4.97;;;3.10;;
27127;SDS011;14660;49.008;8.390;2022-08-30T07:42:57;6.85;;;3.33;;
27127;SDS011;14660;49.008;8.390;2022-08-30T07:45:27;11.48;;;3.83;;
27127;SDS011;14660;49.008;8.390;2022-08-30T07:47:54;5.70;;;3.42;;
27127;SDS011;14660;49.008;8.390;2022-08-30T07:50:22;5.35;;;3.65;;
27127;SDS011;14660;49.008;8.390;2022-08-30T07:52:49;6.75;;;2.88;;
27127;SDS011;14660;49.008;8.390;2022-08-30T07:55:16;4.20;;;2.83;;
27127;SDS011;14660;49.008;8.390;2022-08-30T07:57:43;7.85;;;3.63;;
27127;SDS011;14660;49.008;8.390;2022-08-30T08:00:10;6.95;;;4.20;;
27127;SDS011;14660;49.008;8.390;2022-08-30T08:02:37;5.68;;;3.95;;
27127;SDS011;14660;49.008;8.390;2022-08-30T08:05:05;10.02;;;3.92;;
27127;SDS011;14660;49.008;8.390;2022-08-30T08:07:33;5.80;;;3.60;;
27127;SDS011;14660;49.008;8.390;2022-08-30T08:10:01;4.90;;;2.80;;
27127;SDS011;14660;49.008;8.390;2022-08-30T08:12:28;5.82;;;3.20;;
27127;SDS011;14660;49.008;8.390;2022-08-30T08:14:55;5.97;;;3.45;;
27127;SDS011;14660;49.008;8.390;2022-08-30T08:17:22;6.60;;;3.80;;
27127;SDS011;14660;49.008;8.390;2022-08-30T08:19:49;8.32;;;3.83;;
27127;SDS011;14660;49.008;8.390;2022-08-30T08:22:15;6.00;;;3.78;;
27127;SDS011;14660;49.008;8.390;2022-08-30T08:24:43;6.00;;;3.58;;
27127;SDS011;14660;49.008;8.390;2022-08-30T08:27:10;6.38;;;3.45;;
27127;SDS011;14660;49.008;8.390;2022-08-30T08:29:36;7.20;;;3.80;;
27127;SDS011;14660;49.008;8.390;2022-08-30T08:32:03;6.00;;;3.42;;
27127;SDS011;14660;49.008;8.390;2022-08-30T08:34:30;7.18;;;3.00;;
27127;SDS011;14660;49.008;8.390;2022-08-30T08:36:57;4.22;;;2.97;;
27127;SDS011;14660;49.008;8.390;2022-08-30T08:39:24;7.72;;;4.13;;
27127;SDS011;14660;49.008;8.390;2022-08-30T08:45:10;5.07;;;3.05;;
27127;SDS011;14660;49.008;8.390;2022-08-30T08:50:43;7.43;;;4.03;;
27127;SDS011;14660;49.008;8.390;2022-08-30T08:53:35;6.43;;;3.80;;
27127;SDS011;14660;49.008;8.390;2022-08-30T08:56:09;8.65;;;3.78;;
27127;SDS011;14660;49.008;8.390;2022-08-30T09:01:24;7.72;;;3.33;;
27127;SDS011;14660;49.008;8.390;2022-08-30T09:03:54;7.13;;;3.90;;
27127;SDS011;14660;49.008;8.390;2022-08-30T09:09:26;9.85;;;4.80;;
27127;SDS011;14660;49.008;8.390;2022-08-30T09:11:58;7.73;;;4.30;;
27127;SDS011;14660;49.008;8.390;2022-08-30T09:14:25;6.82;;;3.42;;
27127;SDS011;14660;49.008;8.390;2022-08-30T09:28:11;8.05;;;3.20;;
27127;SDS011;14660;49.008;8.390;2022-08-30T09:30:55;6.57;;;3.50;;
27127;SDS011;14660;49.008;8.390;2022-08-30T09:42:20;5.35;;;3.92;;
27127;SDS011;14660;49.008;8.390;2022-08-30T09:44:49;6.53;;;4.57;;
27127;SDS011;14660;49.008;8.390;2022-08-30T09:47:27;6.07;;;3.75;;
27127;SDS011;14660;49.008;8.390;2022-08-30T09:50:05;6.28;;;4.00;;
27127;SDS011;14660;49.008;8.390;2022-08-30T10:01:39;7.05;;;4.72;;
27127;SDS011;14660;49.008;8.390;2022-08-30T10:10:53;8.02;;;4.20;;
27127;SDS011;14660;49.008;8.390;2022-08-30T10:24:37;12.57;;;6.22;;
27127;SDS011;14660;49.008;8.390;2022-08-30T10:27:35;9.70;;;4.47;;
27127;SDS011;14660;49.008;8.390;2022-08-30T10:30:11;4.30;;;3.83;;
27127;SDS011;14660;49.008;8.390;2022-08-30T10:35:34;5.82;;;4.93;;
27127;SDS011;14660;49.008;8.390;2022-08-30T10:38:07;5.50;;;4.30;;
27127;SDS011;14660;49.008;8.390;2022-08-30T10:40:40;7.55;;;4.97;;
27127;SDS011;14660;49.008;8.390;2022-08-30T10:49:22;5.20;;;4.35;;
27127;SDS011;14660;49.008;8.390;2022-08-30T10:57:33;7.50;;;4.80;;
27127;SDS011;14660;49.008;8.390;2022-08-30T11:00:03;7.47;;;5.50;;
27127;SDS011;14660;49.008;8.390;2022-08-30T11:14:40;8.07;;;5.20;;
27127;SDS011;14660;49.008;8.390;2022-08-30T11:17:21;8.70;;;4.90;;
27127;SDS011;14660;49.008;8.390;2022-08-30T11:20:03;7.60;;;4.95;;
27127;SDS011;14660;49.008;8.390;2022-08-30T11:23:13;7.05;;;4.97;;
27127;SDS011;14660;49.008;8.390;2022-08-30T11:29:16;5.47;;;4.28;;
27127;SDS011;14660;49.008;8.390;2022-08-30T11:31:38;4.93;;;4.38;;
27127;SDS011;14660;49.008;8.390;2022-08-30T11:34:06;5.28;;;3.83;;
27127;SDS011;14660;49.008;8.390;2022-08-30T11:48:02;8.00;;;5.10;;
27127;SDS011;14660;49.008;8.390;2022-08-30T11:50:51;7.75;;;5.78;;
27127;SDS011;14660;49.008;8.390;2022-08-30T12:02:59;5.53;;;4.22;;
27127;SDS011;14660;49.008;8.390;2022-08-30T12:09:00;8.02;;;5.30;;
27127;SDS011;14660;49.008;8.390;2022-08-30T12:14:50;5.20;;;4.15;;
27127;SDS011;14660;49.008;8.390;2022-08-30T12:17:47;3.95;;;3.50;;
27127;SDS011;14660;49.008;8.390;2022-08-30T12:32:03;4.35;;;3.95;;
27127;SDS011;14660;49.008;8.390;2022-08-30T12:40:21;7.45;;;4.65;;
27127;SDS011;14660;49.008;8.390;2022-08-30T12:42:53;6.85;;;4.43;;
27127;SDS011;14660;49.008;8.390;2022-08-30T12:45:23;7.32;;;4.65;;
27127;SDS011;14660;49.008;8.390;2022-08-30T12:56:14;5.32;;;3.95;;
27127;SDS011;14660;49.008;8.390;2022-08-30T13:10:05;7.55;;;4.90;;
27127;SDS011;14660;49.008;8.390;2022-08-30T13:12:32;7.20;;;5.80;;
27127;SDS011;14660;49.008;8.390;2022-08-30T13:18:16;8.35;;;4.97;;
27127;SDS011;14660;49.008;8.390;2022-08-30T13:23:57;8.65;;;5.28;;
27127;SDS011;14660;49.008;8.390;2022-08-30T13:29:02;6.07;;;4.80;;
27127;SDS011;14660;49.008;8.390;2022-08-30T13:31:31;6.32;;;4.75;;
27127;SDS011;14660;49.008;8.390;2022-08-30T13:33:58;7.15;;;4.80;;
27127;SDS011;14660;49.008;8.390;2022-08-30T13:36:30;5.57;;;4.72;;
27127;SDS011;14660;49.008;8.390;2022-08-30T13:38:59;8.23;;;5.17;;
27127;SDS011;14660;49.008;8.390;2022-08-30T13:41:27;6.13;;;5.05;;
27127;SDS011;14660;49.008;8.390;2022-08-30T13:43:54;5.85;;;4.95;;
27127;SDS011;14660;49.008;8.390;2022-08-30T13:46:21;5.47;;;4.53;;
27127;SDS011;14660;49.008;8.390;2022-08-30T13:48:55;6.68;;;4.85;;
27127;SDS011;14660;49.008;8.390;2022-08-30T13:51:25;6.60;;;4.57;;
27127;SDS011;14660;49.008;8.390;2022-08-30T13:53:52;4.40;;;4.00;;
27127;SDS011;14660;49.008;8.390;2022-08-30T13:56:19;6.80;;;5.35;;
27127;SDS011;14660;49.008;8.390;2022-08-30T13:58:46;5.43;;;4.75;;
27127;SDS011;14660;49.008;8.390;2022-08-30T14:01:13;5.70;;;4.57;;
27127;SDS011;14660;49.008;8.390;2022-08-30T14:03:40;7.00;;;4.47;;
27127;SDS011;14660;49.008;8.390;2022-08-30T14:06:06;5.05;;;4.53;;
27127;SDS011;14660;49.008;8.390;2022-08-30T14:08:33;6.40;;;4.53;;
27127;SDS011;14660;49.008;8.390;2022-08-30T14:11:02;8.27;;;3.83;;
27127;SDS011;14660;49.008;8.390;2022-08-30T14:13:30;5.13;;;4.50;;
27127;SDS011;14660;49.008;8.390;2022-08-30T14:15:58;8.93;;;5.38;;
27127;SDS011;14660;49.008;8.390;2022-08-30T14:18:26;5.43;;;4.30;;
27127;SDS011;14660;49.008;8.390;2022-08-30T14:20:53;5.30;;;4.57;;
27127;SDS011;14660;49.008;8.390;2022-08-30T14:23:20;5.25;;;4.75;;
27127;SDS011;14660;49.008;8.390;2022-08-30T14:25:47;5.95;;;4.45;;
27127;SDS011;14660;49.008;8.390;2022-08-30T14:28:13;7.43;;;4.65;;
27127;SDS011;14660;49.008;8.390;2022-08-30T14:30:40;6.90;;;4.95;;
27127;SDS011;14660;49.008;8.390;2022-08-30T14:33:07;7.05;;;4.43;;
27127;SDS011;14660;49.008;8.390;2022-08-30T14:35:34;7.65;;;4.88;;
27127;SDS011;14660;49.008;8.390;2022-08-30T14:38:02;10.55;;;6.00;;
27127;SDS011;14660;49.008;8.390;2022-08-30T14:40:29;6.47;;;4.53;;
27127;SDS011;14660;49.008;8.390;2022-08-30T14:42:56;5.10;;;4.30;;
27127;SDS011;14660;49.008;8.390;2022-08-30T14:45:23;6.82;;;3.88;;
27127;SDS011;14660;49.008;8.390;2022-08-30T14:47:50;5.22;;;4.70;;
27127;SDS011;14660;49.008;8.390;2022-08-30T14:50:17;7.82;;;5.70;;
27127;SDS011;14660;49.008;8.390;2022-08-30T14:52:44;9.18;;;4.60;;
27127;SDS011;14660;49.008;8.390;2022-08-30T14:55:10;7.50;;;4.43;;
27127;SDS011;14660;49.008;8.390;2022-08-30T14:57:37;5.47;;;4.40;;
27127;SDS011;14660;49.008;8.390;2022-08-30T15:00:05;5.30;;;4.07;;
27127;SDS011;14660;49.008;8.390;2022-08-30T15:02:35;4.47;;;3.97;;
27127;SDS011;14660;49.008;8.390;2022-08-30T15:05:02;4.65;;;4.15;;
27127;SDS011;14660;49.008;8.390;2022-08-30T15:07:29;4.65;;;3.58;;
27127;SDS011;14660;49.008;8.390;2022-08-30T15:09:56;9.52;;;5.07;;
27127;SDS011;14660;49.008;8.390;2022-08-30T15:12:23;7.50;;;4.90;;
27127;SDS011;14660;49.008;8.390;2022-08-30T15:14:49;5.75;;;4.22;;
27127;SDS011;14660;49.008;8.390;2022-08-30T15:17:16;10.80;;;6.60;;
27127;SDS011;14660;49.008;8.390;2022-08-30T15:19:44;6.57;;;4.50;;
27127;SDS011;14660;49.008;8.390;2022-08-30T15:22:11;6.43;;;5.18;;
27127;SDS011;14660;49.008;8.390;2022-08-30T15:24:38;7.10;;;5.00;;
27127;SDS011;14660;49.008;8.390;2022-08-30T15:27:06;7.30;;;4.70;;
27127;SDS011;14660;49.008;8.390;2022-08-30T15:29:33;5.95;;;4.93;;
27127;SDS011;14660;49.008;8.390;2022-08-30T15:32:00;5.43;;;4.60;;
27127;SDS011;14660;49.008;8.390;2022-08-30T15:34:28;8.57;;;4.75;;
27127;SDS011;14660;49.008;8.390;2022-08-30T15:36:56;7.55;;;5.70;;
27127;SDS011;14660;49.008;8.390;2022-08-30T15:39:24;5.95;;;5.22;;
27127;SDS011;14660;49.008;8.390;2022-08-30T15:41:51;6.75;;;4.93;;
27127;SDS011;14660;49.008;8.390;2022-08-30T15:44:19;6.78;;;4.55;;
27127;SDS011;14660;49.008;8.390;2022-08-30T15:46:46;7.50;;;4.75;;
27127;SDS011;14660;49.008;8.390;2022-08-30T15:52:01;5.63;;;3.92;;
27127;SDS011;14660;49.008;8.390;2022-08-30T15:54:29;8.27;;;6.18;;
27127;SDS011;14660;49.008;8.390;2022-08-30T15:56:57;8.43;;;5.90;;
27127;SDS011;14660;49.008;8.390;2022-08-30T15:59:27;4.88;;;4.07;;
27127;SDS011;14660;49.008;8.390;2022-08-30T16:01:54;8.23;;;5.72;;
27127;SDS011;14660;49.008;8.390;2022-08-30T16:04:22;8.30;;;6.18;;
27127;SDS011;14660;49.008;8.390;2022-08-30T16:06:48;6.93;;;5.05;;
27127;SDS011;14660;49.008;8.390;2022-08-30T16:09:16;6.95;;;6.00;;
27127;SDS011;14660;49.008;8.390;2022-08-30T16:11:43;10.75;;;6.55;;
27127;SDS011;14660;49.008;8.390;2022-08-30T16:14:09;7.63;;;6.32;;
27127;SDS011;14660;49.008;8.390;2022-08-30T16:16:36;8.23;;;5.20;;
27127;SDS011;14660;49.008;8.390;2022-08-30T16:19:03;4.88;;;3.88;;
27127;SDS011;14660;49.008;8.390;2022-08-30T16:21:31;6.72;;;4.25;;
27127;SDS011;14660;49.008;8.390;2022-08-30T16:24:02;9.05;;;5.63;;
27127;SDS011;14660;49.008;8.390;2022-08-30T16:26:33;5.60;;;4.63;;
27127;SDS011;14660;49.008;8.390;2022-08-30T16:29:03;10.82;;;6.28;;
27127;SDS011;14660;49.008;8.390;2022-08-30T16:31:31;14.55;;;10.02;;
27127;SDS011;14660;49.008;8.390;2022-08-30T16:33:59;8.63;;;6.45;;
27127;SDS011;14660;49.008;8.390;2022-08-30T16:36:28;11.80;;;6.15;;
27127;SDS011;14660;49.008;8.390;2022-08-30T16:38:56;9.73;;;8.50;;
27127;SDS011;14660;49.008;8.390;2022-08-30T16:41:23;11.38;;;7.45;;
27127;SDS011;14660;49.008;8.390;2022-08-30T16:43:50;21.10;;;12.63;;
27127;SDS011;14660;49.008;8.390;2022-08-30T16:46:18;12.75;;;8.85;;
27127;SDS011;14660;49.008;8.390;2022-08-30T16:48:46;10.75;;;6.22;;
27127;SDS011;14660;49.008;8.390;2022-08-30T16:51:14;9.95;;;6.53;;
27127;SDS011;14660;49.008;8.390;2022-08-30T16:53:43;9.43;;;5.78;;
27127;SDS011;14660;49.008;8.390;2022-08-30T16:56:20;12.68;;;6.68;;
27127;SDS011;14660;49.008;8.390;2022-08-30T16:58:50;9.90;;;6.88;;
27127;SDS011;14660;49.008;8.390;2022-08-30T17:01:20;9.15;;;7.00;;
27127;SDS011;14660;49.008;8.390;2022-08-30T17:03:48;12.48;;;8.07;;
27127;SDS011;14660;49.008;8.390;2022-08-30T17:06:16;11.07;;;7.35;;
27127;SDS011;14660;49.008;8.390;2022-08-30T17:08:43;13.48;;;7.70;;
27127;SDS011;14660;49.008;8.390;2022-08-30T17:11:10;11.38;;;8.18;;
27127;SDS011;14660;49.008;8.390;2022-08-30T17:13:38;9.77;;;6.95;;
27127;SDS011;14660;49.008;8.390;2022-08-30T17:16:06;6.05;;;5.15;;
27127;SDS011;14660;49.008;8.390;2022-08-30T17:18:34;6.85;;;4.97;;
27127;SDS011;14660;49.008;8.390;2022-08-30T17:21:01;6.95;;;5.32;;
27127;SDS011;14660;49.008;8.390;2022-08-30T17:23:26;8.25;;;5.43;;
27127;SDS011;14660;49.008;8.390;2022-08-30T17:25:53;11.10;;;7.57;;
27127;SDS011;14660;49.008;8.390;2022-08-30T17:28:22;12.73;;;9.32;;
27127;SDS011;14660;49.008;8.390;2022-08-30T17:30:49;15.25;;;10.68;;
27127;SDS011;14660;49.008;8.390;2022-08-30T17:33:16;16.60;;;10.50;;
27127;SDS011;14660;49.008;8.390;2022-08-30T17:35:43;12.43;;;9.35;;
27127;SDS011;14660;49.008;8.390;2022-08-30T17:38:10;11.07;;;6.53;;
27127;SDS011;14660;49.008;8.390;2022-08-30T17:40:37;13.30;;;7.85;;
27127;SDS011;14660;49.008;8.390;2022-08-30T17:43:05;9.00;;;6.30;;
27127;SDS011;14660;49.008;8.390;2022-08-30T17:45:33;9.43;;;6.85;;
27127;SDS011;14660;49.008;8.390;2022-08-30T17:48:00;10.98;;;8.25;;
27127;SDS011;14660;49.008;8.390;2022-08-30T17:50:28;13.02;;;9.10;;
27127;SDS011;14660;49.008;8.390;2022-08-30T17:52:55;8.35;;;6.32;;